Time;durP1;ratioP1;P1;durP2;ratioP2;P2;SDS_P1;SDS_P2;PMS_P1;PMS_P2;Temp;Humidity;BMP_temperature;BMP_pressure;BME280_temperature;BME280_humidity;BME280_pressure;Samples;Min_cycle;Max_cycle;Signal;HPM_P1;HPM_P2
2022/07/04 00:01:06;;;;;;;2.75;1.27;;;;;;;-145.69;100.00;71076.06;5053000;28;20294;-81
2022/07/04 00:03:33;;;;;;;3.17;1.50;;;;;;;-145.69;100.00;71088.00;5053039;28;20203;-81
2022/07/04 00:06:01;;;;;;;2.38;1.15;;;;;;;-145.69;100.00;71093.97;5053031;28;20199;-81
2022/07/04 00:08:27;;;;;;;2.25;1.10;;;;;;;-145.69;100.00;71099.94;5052862;28;20210;-82
2022/07/04 00:10:54;;;;;;;4.28;1.30;;;;;;;-145.69;100.00;71093.97;5052721;28;20578;-81
2022/07/04 00:13:20;;;;;;;4.38;1.40;;;;;;;-145.69;100.00;71088.00;5052673;28;20214;-80
2022/07/04 00:15:47;;;;;;;3.50;1.48;;;;;;;-145.69;100.00;71080.06;5052940;28;20202;-80
2022/07/04 00:18:13;;;;;;;3.10;1.33;;;;;;;-145.69;100.00;71068.13;5052741;28;20214;-80
2022/07/04 00:20:40;;;;;;;3.42;1.30;;;;;;;-145.69;100.00;71044.22;5052847;28;20207;-80
2022/07/04 00:23:07;;;;;;;2.67;1.30;;;;;;;-145.69;100.00;71036.28;5052729;28;20207;-80
2022/07/04 00:25:34;;;;;;;7.03;1.52;;;;;;;-145.69;100.00;71036.28;5052713;28;20200;-80
2022/07/04 00:28:00;;;;;;;4.25;1.95;;;;;;;-145.69;100.00;71048.22;5052471;28;20210;-81
2022/07/04 00:30:27;;;;;;;2.83;1.40;;;;;;;-145.69;100.00;71046.22;5053795;28;20937;-79
2022/07/04 00:32:54;;;;;;;3.38;1.55;;;;;;;-145.69;100.00;71052.19;5052687;28;20235;-80
2022/07/04 00:35:21;;;;;;;2.08;1.10;;;;;;;-145.69;100.00;71036.28;5052704;28;20199;-80
2022/07/04 00:37:47;;;;;;;4.53;1.70;;;;;;;-145.69;100.00;71042.25;5052626;28;20282;-80
2022/07/04 00:40:15;;;;;;;4.15;1.40;;;;;;;-145.69;100.00;71052.19;5052641;28;20207;-80
2022/07/04 00:42:42;;;;;;;3.40;1.10;;;;;;;-145.69;100.00;71046.22;5052720;28;20559;-80
2022/07/04 00:45:12;;;;;;;2.00;1.48;;;;;;;-145.69;100.00;71046.22;5052542;28;20659;-80
2022/07/04 00:47:38;;;;;;;2.28;1.40;;;;;;;-145.69;100.00;71046.22;5052486;28;20200;-79
2022/07/04 00:50:05;;;;;;;2.78;1.23;;;;;;;-145.69;100.00;71052.19;5052613;28;20195;-80
2022/07/04 00:52:32;;;;;;;3.63;1.30;;;;;;;-145.69;100.00;71052.19;5052279;28;20586;-80
2022/07/04 00:55:00;;;;;;;2.75;1.45;;;;;;;-145.69;100.00;71044.22;5052393;28;20199;-80
2022/07/04 00:57:28;;;;;;;1.98;1.30;;;;;;;-145.69;100.00;71036.28;5052545;28;20203;-80
2022/07/04 00:59:55;;;;;;;1.20;1.05;;;;;;;-145.69;100.00;71024.34;5052316;28;20566;-80
2022/07/04 01:02:21;;;;;;;2.08;1.20;;;;;;;-145.69;100.00;71018.38;5052458;28;20235;-80
2022/07/04 01:04:49;;;;;;;6.03;1.38;;;;;;;-145.69;100.00;71012.41;5052366;28;20282;-80
2022/07/04 01:07:16;;;;;;;6.65;2.38;;;;;;;-145.69;100.00;71018.38;5052207;28;20670;-81
2022/07/04 01:09:46;;;;;;;5.65;1.95;;;;;;;-145.69;100.00;71042.25;5052109;28;20203;-81
2022/07/04 01:12:12;;;;;;;8.40;1.83;;;;;;;-145.69;100.00;71062.13;5055957;28;20223;-80
2022/07/04 01:14:40;;;;;;;6.05;1.92;;;;;;;-145.69;100.00;71064.13;5056123;28;20274;-80
2022/07/04 01:17:07;;;;;;;3.85;2.25;;;;;;;-145.69;100.00;71078.06;5056101;28;20204;-80
2022/07/04 01:19:33;;;;;;;2.72;1.60;;;;;;;-145.69;100.00;71092.00;5055894;28;20210;-80
2022/07/04 01:22:06;;;;;;;2.85;1.80;;;;;;;-145.69;100.00;71107.91;5055695;28;20673;-80
2022/07/04 01:24:32;;;;;;;5.13;1.60;;;;;;;-145.69;100.00;71127.81;5056160;28;20244;-80
2022/07/04 01:26:59;;;;;;;3.30;1.65;;;;;;;-145.69;100.00;71139.75;5055895;28;20210;-81
2022/07/04 01:29:25;;;;;;;5.20;1.70;;;;;;;-145.69;100.00;71147.69;5055830;28;20645;-81
2022/07/04 01:31:53;;;;;;;2.50;1.63;;;;;;;-145.69;100.00;71157.66;5054753;28;20541;-80
2022/07/04 01:34:19;;;;;;;2.78;1.90;;;;;;;-145.69;100.00;71173.56;5055813;28;20204;-80
2022/07/04 01:36:46;;;;;;;2.08;1.67;;;;;;;-145.69;100.00;71183.50;5055450;28;20589;-80
2022/07/04 01:39:14;;;;;;;5.57;1.80;;;;;;;-145.69;100.00;71185.50;5063321;28;20209;-79
2022/07/04 01:41:43;;;;;;;3.33;1.65;;;;;;;-145.69;100.00;71189.47;5075756;28;20223;-80
2022/07/04 01:44:09;;;;;;;4.90;1.90;;;;;;;-145.69;100.00;71197.44;5075533;28;20206;-80
2022/07/04 01:46:36;;;;;;;4.50;2.35;;;;;;;-145.69;100.00;71201.41;5075468;28;20233;-80
2022/07/04 01:49:02;;;;;;;6.07;2.20;;;;;;;-145.69;100.00;71199.44;5075193;28;20258;-81
2022/07/04 01:51:29;;;;;;;6.90;2.03;;;;;;;-145.69;100.00;71203.41;5075371;28;20222;-81
2022/07/04 01:53:55;;;;;;;3.33;1.88;;;;;;;-145.69;100.00;71203.41;5075440;28;20199;-81
2022/07/04 01:56:23;;;;;;;4.07;2.15;;;;;;;-145.69;100.00;71207.38;5075309;28;20199;-81
2022/07/04 01:58:50;;;;;;;7.38;2.25;;;;;;;-145.69;100.00;71205.41;5075125;28;20203;-81
2022/07/04 02:01:30;;;;;;;4.38;2.03;;;;;;;-145.69;100.00;71199.44;5074983;28;20203;-81
2022/07/04 02:03:57;;;;;;;2.85;2.20;;;;;;;-145.69;100.00;71201.41;5075104;28;20672;-81
2022/07/04 02:06:23;;;;;;;1.75;1.65;;;;;;;-145.69;100.00;71209.38;5075165;28;20194;-80
2022/07/04 02:14:24;;;;;;;3.55;2.20;;;;;;;-145.69;100.00;71229.28;5074920;28;20604;-80
2022/07/04 02:16:50;;;;;;;6.20;2.40;;;;;;;-145.69;100.00;71223.31;5075047;28;20199;-80
2022/07/04 02:19:17;;;;;;;4.60;2.10;;;;;;;-145.69;100.00;71215.34;5075044;28;20561;-81
2022/07/04 02:21:44;;;;;;;5.85;2.20;;;;;;;-145.69;100.00;71211.38;5074032;28;20297;-81
2022/07/04 02:24:10;;;;;;;2.85;2.22;;;;;;;-145.69;100.00;71215.34;5074694;28;20203;-81
2022/07/04 02:26:38;;;;;;;3.90;2.05;;;;;;;-145.69;100.00;71215.34;5074546;28;20668;-81
2022/07/04 02:29:04;;;;;;;3.88;2.40;;;;;;;-145.69;100.00;71219.34;5075584;28;20203;-81
2022/07/04 02:31:31;;;;;;;4.93;2.10;;;;;;;-145.69;100.00;71221.31;5071637;28;20709;-81
2022/07/04 02:33:57;;;;;;;4.97;2.30;;;;;;;-145.69;100.00;71223.31;5054501;28;20209;-81
2022/07/04 02:36:24;;;;;;;4.57;2.33;;;;;;;-145.69;100.00;71227.28;5054305;28;20781;-80
2022/07/04 02:38:50;;;;;;;4.65;2.30;;;;;;;-145.69;100.00;71227.28;5054487;28;20214;-81
2022/07/04 02:41:17;;;;;;;10.27;2.53;;;;;;;-145.69;100.00;71223.31;5054399;28;20253;-79
2022/07/04 02:43:47;;;;;;;4.07;2.42;;;;;;;-145.69;100.00;71227.28;5054790;28;20199;-80
2022/07/04 02:46:13;;;;;;;2.85;2.13;;;;;;;-145.69;100.00;71235.25;5054252;28;20199;-80
2022/07/04 02:48:40;;;;;;;3.25;2.00;;;;;;;-145.69;100.00;71241.22;5054370;28;20228;-81
2022/07/04 02:51:06;;;;;;;4.05;2.05;;;;;;;-145.69;100.00;71247.19;5054283;28;20200;-80
2022/07/04 02:53:33;;;;;;;4.65;2.20;;;;;;;-145.69;100.00;71235.25;5053792;28;20462;-80
2022/07/04 02:56:03;;;;;;;3.05;1.80;;;;;;;-145.69;100.00;71239.22;5054399;28;20626;-80
2022/07/04 02:58:29;;;;;;;3.08;2.17;;;;;;;-145.69;100.00;71239.22;5054190;28;20208;-80
2022/07/04 03:00:57;;;;;;;3.00;2.08;;;;;;;-145.69;100.00;71245.19;5054024;28;20204;-80
2022/07/04 03:03:27;;;;;;;2.85;2.20;;;;;;;-145.69;100.00;71255.16;5054017;28;20214;-81
2022/07/04 03:05:55;;;;;;;11.30;2.08;;;;;;;-145.69;100.00;71257.13;5053870;28;20403;-81
2022/07/04 03:08:22;;;;;;;3.63;2.40;;;;;;;-145.69;100.00;71261.13;5053692;28;20230;-81
2022/07/04 03:10:50;;;;;;;2.35;2.05;;;;;;;-145.69;100.00;71259.13;5053941;28;20210;-80
2022/07/04 03:13:17;;;;;;;3.80;2.00;;;;;;;-145.69;100.00;71271.06;5053592;28;20563;-80
2022/07/04 03:15:43;;;;;;;5.10;2.17;;;;;;;-145.69;100.00;71275.03;5053822;28;20226;-80
2022/07/04 03:18:11;;;;;;;2.42;2.22;;;;;;;-145.69;100.00;71275.03;5053806;28;20199;-80
2022/07/04 03:20:38;;;;;;;2.72;2.20;;;;;;;-145.69;100.00;71283.00;5053620;28;20207;-80
2022/07/04 03:23:04;;;;;;;3.17;2.30;;;;;;;-145.69;100.00;71288.97;5053528;28;20199;-81
2022/07/04 03:25:31;;;;;;;3.42;2.22;;;;;;;-145.69;100.00;71298.94;5053485;28;20199;-80
2022/07/04 03:27:57;;;;;;;3.38;2.70;;;;;;;-145.69;100.00;71296.94;5053543;28;20272;-80
2022/07/04 03:30:23;;;;;;;2.95;2.65;;;;;;;-145.69;100.00;71310.84;5053426;28;20596;-80
2022/07/04 03:32:50;;;;;;;5.82;2.63;;;;;;;-145.69;100.00;71308.88;5053486;28;20234;-80
2022/07/04 03:35:18;;;;;;;4.38;2.97;;;;;;;-145.69;100.00;71308.88;5053590;28;20206;-80
2022/07/04 03:37:44;;;;;;;3.92;2.80;;;;;;;-145.69;100.00;71318.81;5053514;28;20214;-80
2022/07/04 03:40:11;;;;;;;3.00;2.20;;;;;;;-145.69;100.00;71334.75;5053527;28;20203;-80
2022/07/04 03:42:38;;;;;;;12.90;2.60;;;;;;;-145.69;100.00;71338.72;5053157;28;20253;-80
2022/07/04 03:45:06;;;;;;;5.32;2.88;;;;;;;-145.69;100.00;71328.78;5053471;28;20199;-81
2022/07/04 03:47:32;;;;;;;7.63;2.50;;;;;;;-145.69;100.00;71338.72;5053116;28;20200;-81
2022/07/04 03:49:59;;;;;;;4.53;2.40;;;;;;;-145.69;100.00;71354.63;5013337;28;20211;-80
2022/07/04 03:52:27;;;;;;;5.22;2.67;;;;;;;-145.69;100.00;71354.63;5013478;28;20228;-79
2022/07/04 03:54:54;;;;;;;5.30;2.95;;;;;;;-145.69;100.00;71346.69;5013473;28;20211;-80
2022/07/04 03:57:20;;;;;;;3.63;2.85;;;;;;;-145.69;100.00;71346.69;5013500;28;20200;-81
2022/07/04 03:59:47;;;;;;;5.25;2.80;;;;;;;-145.69;100.00;71354.63;5013383;28;20208;-81
2022/07/04 04:02:13;;;;;;;5.38;2.80;;;;;;;-145.69;100.00;71356.63;5013358;28;20209;-81
2022/07/04 04:07:24;;;;;;;4.13;2.67;;;;;;;-145.69;100.00;71350.66;5013368;28;20669;-80
2022/07/04 04:09:51;;;;;;;3.63;2.60;;;;;;;-145.69;100.00;71354.63;5013315;28;20283;-80
2022/07/04 04:12:18;;;;;;;3.50;2.50;;;;;;;-145.69;100.00;71362.59;5013225;28;20228;-81
2022/07/04 04:14:48;;;;;;;3.25;2.58;;;;;;;-145.69;100.00;71358.63;5013154;28;20200;-80
2022/07/04 04:17:14;;;;;;;2.60;2.40;;;;;;;-145.69;100.00;71354.63;5013331;28;20263;-80
2022/07/04 04:19:40;;;;;;;3.28;2.38;;;;;;;-145.69;100.00;71358.63;5013014;28;20679;-81
2022/07/04 04:22:07;;;;;;;5.80;2.25;;;;;;;-145.69;100.00;71354.63;5013146;28;20204;-80
2022/07/04 04:24:33;;;;;;;3.10;2.28;;;;;;;-145.69;100.00;71356.63;5013132;28;20208;-81
2022/07/04 04:27:01;;;;;;;10.63;2.50;;;;;;;-145.69;100.00;71342.69;5015383;28;20197;-80
2022/07/04 04:29:28;;;;;;;4.45;2.22;;;;;;;-145.69;100.00;71340.72;5012986;28;20306;-80
2022/07/04 04:31:54;;;;;;;9.20;2.70;;;;;;;-145.69;100.00;71336.72;5013172;28;20204;-79
2022/07/04 04:34:21;;;;;;;3.70;2.30;;;;;;;-145.69;100.00;71318.81;5013172;28;20197;-80
2022/07/04 04:36:47;;;;;;;8.63;2.30;;;;;;;-145.69;100.00;71304.91;5013024;28;20211;-80
2022/07/04 04:39:14;;;;;;;4.20;2.35;;;;;;;-145.69;100.00;71288.97;5013009;28;20559;-80
2022/07/04 04:41:40;;;;;;;5.95;2.28;;;;;;;-145.69;100.00;71283.00;5012937;28;20237;-80
2022/07/04 04:44:08;;;;;;;5.18;2.20;;;;;;;-145.69;100.00;71275.03;5012769;28;20205;-80
2022/07/04 04:46:35;;;;;;;7.00;2.00;;;;;;;-145.69;100.00;71261.13;5015918;28;20563;-80
2022/07/04 04:49:03;;;;;;;3.75;2.05;;;;;;;-145.69;100.00;71257.13;5040971;28;20238;-81
2022/07/04 04:51:29;;;;;;;8.90;2.15;;;;;;;-145.69;100.00;71249.19;5056506;28;20204;-80
2022/07/04 04:53:56;;;;;;;4.85;2.10;;;;;;;-145.69;100.00;71235.25;5056428;28;20306;-80
2022/07/04 04:56:22;;;;;;;4.95;2.00;;;;;;;-145.69;100.00;71241.22;5056326;28;20203;-81
2022/07/04 04:58:49;;;;;;;3.45;1.90;;;;;;;-145.69;100.00;71245.19;5056228;28;20207;-80
2022/07/04 05:01:17;;;;;;;2.45;1.73;;;;;;;-145.69;100.00;71247.19;5056573;28;20210;-80
2022/07/04 05:03:43;;;;;;;3.72;2.03;;;;;;;-145.69;100.00;71227.28;5056405;28;20202;-80
2022/07/04 05:06:10;;;;;;;2.70;1.70;;;;;;;-145.69;100.00;71215.34;5056131;28;20646;-80
2022/07/04 05:08:37;;;;;;;3.05;1.67;;;;;;;-145.69;100.00;71207.38;5056238;28;20203;-81
2022/07/04 05:11:03;;;;;;;2.60;2.00;;;;;;;-145.69;100.00;71201.41;5056110;28;20552;-80
2022/07/04 05:13:30;;;;;;;2.10;1.90;;;;;;;-145.69;100.00;71181.53;5056038;28;20238;-81
2022/07/04 05:15:56;;;;;;;4.75;2.45;;;;;;;-145.69;100.00;71159.63;5056147;28;20195;-80
2022/07/04 05:18:24;;;;;;;4.60;1.90;;;;;;;-145.69;100.00;71135.75;5056106;28;20211;-80
2022/07/04 05:20:51;;;;;;;3.63;1.90;;;;;;;-145.69;100.00;71117.84;5055994;28;20202;-81
2022/07/04 05:23:17;;;;;;;4.60;1.88;;;;;;;-145.69;100.00;71092.00;5055887;28;20232;-81
2022/07/04 05:25:44;;;;;;;3.22;1.83;;;;;;;-145.69;100.00;71084.03;5055723;28;20202;-81
2022/07/04 05:28:10;;;;;;;4.22;1.80;;;;;;;-145.69;100.00;71084.03;5055847;28;20214;-80
2022/07/04 05:30:37;;;;;;;6.70;1.63;;;;;;;-145.69;100.00;71064.13;5056023;28;20203;-80
2022/07/04 05:33:03;;;;;;;4.43;1.38;;;;;;;-145.69;100.00;71036.28;5055706;28;20314;-81
2022/07/04 05:35:31;;;;;;;2.00;1.40;;;;;;;-145.69;100.00;71006.44;5055850;28;20211;-81
2022/07/04 05:37:58;;;;;;;2.53;1.38;;;;;;;-145.69;100.00;70996.47;5055552;28;20257;-80
2022/07/04 05:40:24;;;;;;;4.80;1.23;;;;;;;-145.69;100.00;71000.47;5055448;28;20206;-80
2022/07/04 05:42:51;;;;;;;2.95;1.50;;;;;;;-145.69;100.00;70962.66;5055426;28;20670;-81
2022/07/04 05:45:18;;;;;;;3.45;1.33;;;;;;;-145.69;100.00;70940.78;5055560;28;20200;-81
2022/07/04 05:47:44;;;;;;;1.63;1.52;;;;;;;-145.69;100.00;70958.69;5055129;28;20659;-80
2022/07/04 05:50:11;;;;;;;2.35;1.20;;;;;;;-145.69;100.00;70948.72;5055421;28;20735;-81
2022/07/04 05:52:39;;;;;;;5.57;1.67;;;;;;;-145.69;100.00;70988.53;5055374;28;20258;-81
2022/07/04 05:55:07;;;;;;;2.67;1.52;;;;;;;-145.69;100.00;71028.31;5054204;28;20926;-80
2022/07/04 05:57:34;;;;;;;2.20;1.27;;;;;;;-145.69;100.00;71016.38;5054114;28;20195;-81
2022/07/04 06:00:00;;;;;;;2.17;1.50;;;;;;;-145.69;100.00;71024.34;5055359;28;20199;-80
2022/07/04 06:02:27;;;;;;;3.05;1.33;;;;;;;-145.69;100.00;71036.28;5055167;28;20195;-80
2022/07/04 06:04:53;;;;;;;2.17;1.50;;;;;;;-145.69;100.00;71036.28;5055320;28;20763;-80
2022/07/04 06:07:20;;;;;;;2.05;1.63;;;;;;;-145.69;100.00;71036.28;5055937;28;20207;-80
2022/07/04 06:09:47;;;;;;;4.68;1.83;;;;;;;-145.69;100.00;71042.25;5055065;28;20206;-80
2022/07/04 06:12:14;;;;;;;3.17;1.50;;;;;;;-145.69;100.00;70998.47;5054977;28;20231;-80
2022/07/04 06:14:41;;;;;;;3.70;1.80;;;;;;;-145.69;100.00;70958.69;5054794;28;20230;-80
2022/07/04 06:17:07;;;;;;;2.28;1.60;;;;;;;-145.69;100.00;70918.88;5054948;28;20210;-80
2022/07/04 06:19:34;;;;;;;1.33;1.23;;;;;;;-145.69;100.00;70873.13;5054942;28;20203;-81
2022/07/04 06:22:04;;;;;;;2.38;1.58;;;;;;;-145.69;97.30;70837.31;5054596;28;20196;-81
2022/07/04 06:24:36;;;;;;;2.92;1.50;;;;;;;-145.69;92.78;70829.34;5054548;28;20681;-80
2022/07/04 06:27:05;;;;;;;2.95;1.40;;;;;;;-145.69;93.00;70811.44;5057115;28;20195;-80
2022/07/04 06:29:34;;;;;;;3.55;1.50;;;;;;;-145.69;90.05;70817.41;5054697;28;20658;-80
2022/07/04 06:32:05;;;;;;;2.70;1.48;;;;;;;-145.69;88.70;70813.44;5054613;28;20199;-81
2022/07/04 06:37:17;;;;;;;4.35;1.70;;;;;;;-145.69;88.78;70833.34;5054476;28;20201;-80
2022/07/04 06:39:44;;;;;;;4.97;1.48;;;;;;;-145.69;86.51;70773.66;5054461;28;20631;-81
2022/07/04 06:42:12;;;;;;;5.30;1.60;;;;;;;-145.69;87.89;70777.63;5054476;28;20207;-81
2022/07/04 06:44:38;;;;;;;2.83;1.35;;;;;;;-145.69;88.24;70761.72;5054586;28;20195;-81
2022/07/04 06:47:14;;;;;;;4.40;1.30;;;;;;;-145.69;87.81;70765.69;5054310;28;20202;-81
2022/07/04 06:49:40;;;;;;;2.70;1.25;;;;;;;-145.69;84.07;70757.72;5054285;28;20234;-81
2022/07/04 06:52:07;;;;;;;3.67;1.30;;;;;;;-145.69;85.24;70761.72;5054274;28;20207;-81
2022/07/04 06:54:33;;;;;;;4.35;1.60;;;;;;;-145.69;84.61;70795.53;5054181;28;20231;-81
2022/07/04 06:57:00;;;;;;;2.42;1.20;;;;;;;-145.69;84.41;70749.78;5054175;28;20203;-81
2022/07/04 06:59:28;;;;;;;2.45;1.40;;;;;;;-145.69;84.27;70678.16;5054022;28;20195;-81
2022/07/04 07:01:54;;;;;;;4.60;1.23;;;;;;;-145.69;76.81;70642.34;5054225;28;20222;-80
2022/07/04 07:04:21;;;;;;;3.33;1.20;;;;;;;-145.69;72.22;70580.66;5054115;28;20204;-81
2022/07/04 07:06:47;;;;;;;2.03;1.25;;;;;;;-145.69;73.23;70554.81;5053988;28;20210;-81
2022/07/04 07:09:14;;;;;;;4.25;1.20;;;;;;;-145.69;70.14;70572.72;5053544;28;20203;-81
2022/07/04 07:11:40;;;;;;;1.98;1.30;;;;;;;-145.69;74.39;70656.25;5053769;28;20200;-81
2022/07/04 07:14:07;;;;;;;2.85;1.20;;;;;;;-145.69;70.33;70674.16;5053484;28;20716;-81
2022/07/04 07:16:37;;;;;;;2.78;1.60;;;;;;;-145.69;73.65;70702.03;5053964;28;20203;-81
2022/07/04 07:19:03;;;;;;;2.50;1.25;;;;;;;-145.69;79.15;70747.78;5053844;28;20199;-81
2022/07/04 07:21:30;;;;;;;2.22;1.45;;;;;;;-145.69;79.05;70735.84;5054085;28;20211;-81
2022/07/04 07:23:56;;;;;;;2.33;1.40;;;;;;;-145.69;76.27;70692.06;5053657;28;20256;-81
2022/07/04 07:26:23;;;;;;;2.13;1.48;;;;;;;-145.69;76.62;70666.22;5053459;28;20701;-81
2022/07/04 07:28:49;;;;;;;1.70;1.10;;;;;;;-145.69;75.92;70628.41;5053376;28;20195;-81
2022/07/04 07:31:16;;;;;;;3.05;1.10;;;;;;;-145.69;72.57;70682.13;5053543;28;20567;-81
2022/07/04 07:33:44;;;;;;;2.88;1.50;;;;;;;-145.69;77.97;70684.13;5053484;28;20230;-81
2022/07/04 07:36:13;;;;;;;3.25;1.40;;;;;;;-145.69;72.09;70684.13;5053561;28;20199;-81
2022/07/04 07:38:40;;;;;;;1.60;1.20;;;;;;;-145.69;75.28;70652.28;5053353;28;20200;-81
2022/07/04 07:41:09;;;;;;;4.60;1.38;;;;;;;-145.69;75.70;70622.44;5053284;28;20206;-81
2022/07/04 07:43:36;;;;;;;4.78;1.20;;;;;;;-145.69;81.28;70610.50;5053111;28;20688;-81
2022/07/04 07:46:03;;;;;;;1.85;1.23;;;;;;;-145.69;75.98;70584.66;5053364;28;20405;-81
2022/07/04 07:48:29;;;;;;;2.45;1.50;;;;;;;-145.69;74.96;70554.81;5052975;28;20266;-81
2022/07/04 07:50:57;;;;;;;4.45;1.40;;;;;;;-145.69;76.86;70546.84;5053444;28;20207;-81
2022/07/04 07:53:23;;;;;;;6.68;1.60;;;;;;;-145.69;76.75;70526.94;5053080;28;20231;-81
2022/07/04 07:55:53;;;;;;;5.25;1.38;;;;;;;-145.69;75.92;70586.63;5053033;28;20200;-81
2022/07/04 07:58:20;;;;;;;6.18;1.30;;;;;;;-145.69;77.81;70582.66;5052879;28;20654;-81
2022/07/04 08:00:48;;;;;;;4.68;1.45;;;;;;;-145.69;73.07;70524.97;5053091;28;20200;-80
2022/07/04 08:06:01;;;;;;;4.32;1.30;;;;;;;-145.69;78.87;70513.03;5052977;28;20206;-80
2022/07/04 08:08:28;;;;;;;6.72;1.42;;;;;;;-145.69;74.11;70560.78;5052808;28;20199;-80
2022/07/04 08:10:55;;;;;;;1.40;1.10;;;;;;;-145.69;78.11;70526.94;5052684;28;20199;-79
2022/07/04 08:13:23;;;;;;;2.28;1.30;;;;;;;-145.69;71.62;70485.16;5052870;28;20227;-80
2022/07/04 08:15:50;;;;;;;2.55;1.50;;;;;;;-145.69;73.60;70467.28;5052890;28;20211;-79
2022/07/04 08:18:17;;;;;;;4.72;1.42;;;;;;;-145.69;76.82;70550.81;5052792;28;20535;-80
2022/07/04 08:20:44;;;;;;;4.15;1.40;;;;;;;-145.69;82.82;70602.56;5052218;28;20207;-80
2022/07/04 08:23:12;;;;;;;3.20;1.55;;;;;;;-145.69;74.06;70522.97;5052922;28;20206;-80
2022/07/04 08:25:38;;;;;;;3.65;1.13;;;;;;;-145.69;75.76;70544.84;5053200;28;20207;-79
2022/07/04 08:28:05;;;;;;;3.75;1.42;;;;;;;-145.69;75.55;70596.59;5054279;28;20211;-80
2022/07/04 08:30:31;;;;;;;2.65;1.40;;;;;;;-145.69;79.36;70648.31;5052720;28;20203;-80
2022/07/04 08:32:58;;;;;;;3.95;1.48;;;;;;;-145.69;79.59;70674.16;5052595;28;20286;-80
2022/07/04 08:35:26;;;;;;;4.60;1.35;;;;;;;-145.69;79.09;70668.19;5052365;28;20259;-79
2022/07/04 08:37:55;;;;;;;4.55;1.60;;;;;;;-145.69;76.66;70719.94;5052916;28;20199;-80
2022/07/04 08:40:24;;;;;;;2.10;1.35;;;;;;;-145.69;77.44;70688.09;5052805;28;20214;-80
2022/07/04 08:42:51;;;;;;;5.15;1.67;;;;;;;-145.69;74.58;70614.47;5052687;28;20218;-80
2022/07/04 08:45:21;;;;;;;2.83;1.60;;;;;;;-145.69;74.16;70614.47;5052564;28;20207;-80
2022/07/04 08:47:52;;;;;;;2.33;1.50;;;;;;;-145.69;70.19;70544.84;5052217;28;20473;-80
2022/07/04 08:50:26;;;;;;;6.90;1.30;;;;;;;-145.69;69.45;70520.97;5052736;28;20577;-80
2022/07/04 08:52:57;;;;;;;3.65;1.48;;;;;;;-145.69;76.82;70630.41;5051500;28;20518;-80
2022/07/04 09:01:01;;;;;;;2.63;1.45;;;;;;;-145.69;75.12;70636.38;5052018;28;20285;-80
2022/07/04 09:03:30;;;;;;;3.13;1.48;;;;;;;-145.69;79.85;70570.72;5052599;28;20302;-80
2022/07/04 09:06:02;;;;;;;3.03;1.58;;;;;;;-145.69;75.48;70558.78;5052309;28;20738;-81
2022/07/04 09:08:33;;;;;;;2.90;1.60;;;;;;;-145.69;72.76;70524.97;5052259;28;20200;-81
2022/07/04 09:11:01;;;;;;;5.07;1.70;;;;;;;-145.69;82.58;70419.53;5052427;28;20654;-81
2022/07/04 09:13:27;;;;;;;5.10;1.92;;;;;;;-145.69;71.15;70379.72;5052107;28;20199;-81
2022/07/04 09:15:54;;;;;;;5.85;1.30;;;;;;;-145.69;67.55;70306.13;5052117;28;20681;-81
2022/07/04 09:18:23;;;;;;;5.15;1.83;;;;;;;-145.69;71.58;70451.34;5052374;28;20208;-82
2022/07/04 09:20:49;;;;;;;2.40;1.33;;;;;;;-145.69;72.79;70421.50;5052169;28;20681;-81
2022/07/04 09:23:19;;;;;;;5.28;1.73;;;;;;;-145.69;70.43;70395.66;5052313;28;20212;-82
2022/07/04 09:25:48;;;;;;;5.32;1.75;;;;;;;-145.69;65.70;70381.72;5052550;28;20199;-82
2022/07/04 09:28:28;;;;;;;2.78;1.60;;;;;;;-145.69;68.67;70425.50;5053192;28;20618;-81
2022/07/04 09:30:55;;;;;;;3.38;1.30;;;;;;;-145.69;65.81;70347.91;5052403;28;20230;-82
2022/07/04 09:33:23;;;;;;;7.75;1.50;;;;;;;-145.69;63.54;70290.22;5055707;28;20261;-82
2022/07/04 09:35:49;;;;;;;4.32;1.60;;;;;;;-145.69;64.77;70304.13;5055683;28;20204;-81
2022/07/04 09:38:23;;;;;;;2.90;1.60;;;;;;;-145.69;63.68;70322.03;5055969;28;20203;-83
2022/07/04 09:43:58;;;;;;;3.85;1.60;;;;;;;-145.69;70.71;70405.59;5056112;28;20673;-82
2022/07/04 09:46:25;;;;;;;3.67;1.60;;;;;;;-145.69;68.81;70423.50;5055700;28;20195;-82
2022/07/04 09:48:55;;;;;;;8.98;1.67;;;;;;;-145.69;70.27;70395.66;5055557;28;20314;-82
2022/07/04 09:51:44;;;;;;;5.38;1.70;;;;;;;-145.69;68.72;70399.63;5055795;28;20222;-81
2022/07/04 09:54:15;;;;;;;4.63;1.73;;;;;;;-145.69;68.75;70403.59;5055483;28;20594;-84
2022/07/04 09:56:43;;;;;;;3.15;1.83;;;;;;;-145.69;70.35;70439.41;5055005;28;20610;-84
2022/07/04 09:59:11;;;;;;;2.42;1.70;;;;;;;-145.69;68.89;70459.31;5055811;28;20199;-83
2022/07/04 10:01:39;;;;;;;3.55;1.95;;;;;;;-145.69;69.30;70495.13;5055723;28;20199;-81
2022/07/04 10:04:05;;;;;;;6.93;1.95;;;;;;;-145.69;72.66;70493.13;5055849;28;20203;-82
2022/07/04 10:06:33;;;;;;;3.60;1.90;;;;;;;-145.69;70.65;70475.22;5055413;28;20195;-84
2022/07/04 10:09:08;;;;;;;5.60;1.65;;;;;;;-145.69;72.81;70485.16;5054888;28;20199;-81
2022/07/04 10:11:41;;;;;;;3.60;1.85;;;;;;;-145.69;70.80;70332.00;5055077;28;20226;-81
2022/07/04 10:14:09;;;;;;;3.72;1.80;;;;;;;-145.69;63.25;70186.78;5055103;28;20318;-81
2022/07/04 10:16:38;;;;;;;3.45;1.60;;;;;;;-145.69;56.86;70129.09;5055110;28;20546;-81
2022/07/04 10:19:07;;;;;;;2.80;1.40;;;;;;;-145.69;58.65;70236.50;5055015;28;20199;-85
2022/07/04 10:21:34;;;;;;;5.82;1.58;;;;;;;-145.69;62.92;70355.88;5054682;28;20606;-81
2022/07/04 10:24:03;;;;;;;5.45;1.65;;;;;;;-145.69;60.99;70278.28;5054719;28;20209;-81
2022/07/04 10:26:30;;;;;;;6.57;1.65;;;;;;;-145.69;60.87;70335.97;5054831;28;20200;-82
2022/07/04 10:28:57;;;;;;;5.57;1.85;;;;;;;-145.69;63.09;70288.22;5057121;28;20227;-81
2022/07/04 10:31:26;;;;;;;6.18;1.50;;;;;;;-145.69;59.12;70298.16;5054853;28;20206;-83
2022/07/04 10:33:55;;;;;;;4.05;1.50;;;;;;;-145.69;60.26;70296.19;5054464;28;20654;-81
2022/07/04 10:36:23;;;;;;;7.03;1.70;;;;;;;-145.69;62.56;70272.31;5054179;28;20436;-81
2022/07/04 10:38:54;;;;;;;3.80;1.40;;;;;;;-145.69;62.18;70276.28;5054770;28;20238;-83
2022/07/04 10:41:23;;;;;;;2.90;1.63;;;;;;;-145.69;64.19;70300.16;5054873;28;20239;-82
2022/07/04 10:43:56;;;;;;;3.47;1.45;;;;;;;-145.69;65.46;70312.09;5054061;28;20203;-84
2022/07/04 10:46:30;;;;;;;5.45;1.88;;;;;;;-145.69;65.66;70296.19;5055257;28;20286;-84
2022/07/04 10:49:00;;;;;;;3.13;1.85;;;;;;;-145.69;64.98;70250.44;5054623;28;20780;-85
2022/07/04 10:51:35;;;;;;;6.07;1.77;;;;;;;-145.69;63.21;70230.53;5054624;28;20293;-82
2022/07/04 10:54:03;;;;;;;5.82;1.77;;;;;;;-145.69;62.59;70246.44;5054640;28;20199;-82
2022/07/04 10:56:40;;;;;;;5.47;1.40;;;;;;;-145.69;62.01;70272.31;5054660;28;20199;-83
2022/07/04 10:59:13;;;;;;;2.80;1.42;;;;;;;-145.69;67.38;70298.16;5054165;28;20654;-81
2022/07/04 11:01:46;;;;;;;4.22;1.63;;;;;;;-145.69;62.54;70359.84;5054480;28;20199;-83
2022/07/04 11:04:31;;;;;;;5.85;1.92;;;;;;;-145.69;66.56;70351.88;5054558;28;20245;-82
2022/07/04 11:06:57;;;;;;;3.75;1.83;;;;;;;-145.69;64.79;70409.56;5053963;28;20207;-82
2022/07/04 11:09:25;;;;;;;5.13;1.92;;;;;;;-145.69;65.61;70383.72;5053887;28;20558;-81
2022/07/04 11:11:56;;;;;;;2.42;1.48;;;;;;;-145.69;63.59;70298.16;5053650;28;20613;-81
2022/07/04 11:14:33;;;;;;;5.60;1.55;;;;;;;-145.69;63.15;70260.38;5053856;28;20234;-81
2022/07/04 11:17:03;;;;;;;3.35;1.58;;;;;;;-145.69;60.36;70113.16;5054099;28;20234;-83
2022/07/04 11:19:31;;;;;;;7.07;1.52;;;;;;;-145.69;54.18;70065.44;5054361;28;20203;-85
2022/07/04 11:21:58;;;;;;;6.90;1.60;;;;;;;-145.69;54.09;70085.31;5053642;28;20204;-82
2022/07/04 11:24:28;;;;;;;2.53;1.40;;;;;;;-145.69;51.15;70115.16;5053863;28;20214;-83
2022/07/04 11:26:57;;;;;;;2.97;1.33;;;;;;;-145.69;51.31;70085.31;5053698;28;20298;-82
2022/07/04 11:29:26;;;;;;;8.68;1.30;;;;;;;-145.69;55.26;70099.25;5053921;28;20655;-83
2022/07/04 11:31:55;;;;;;;4.50;1.45;;;;;;;-145.69;57.19;70234.50;5053820;28;20206;-84
2022/07/04 11:34:28;;;;;;;4.13;1.58;;;;;;;-145.69;58.56;70268.34;5053673;28;20230;-80
2022/07/04 11:36:56;;;;;;;3.30;1.55;;;;;;;-145.69;60.06;70332.00;5053262;28;20253;-80